Weather at Elkford Health Centre Heliport

Public forecast

Using degrees Celsius for public forecast. Weather courtesy of forecast.io.

Closest aviation weather report (METAR) to Elkford Health Centre Heliport

Closest report is Cranbrook/Canadian Rockies International Airport, 41.6 nm (77.0 km) SW.

2024/05/30 04:00 (retrieved 13 minutes ago)

CYXC 300400Z 27006KT 25SM FEW050 SCT096 BKN160 BKN200 09/M02 A3004 RMK SC1AC3AC2CI1 CI TR SLP180

Closest aviation forecast (TAF) to Elkford Health Centre Heliport

Forecast is more than 6 hours old.

Closest forecast is Malmstrom Air Force Base, 211.2 nm (391.1 km) SE.

2024/05/29 21:03 (retrieved 7 hours ago)

TAF KGFA 292100Z 2921/3103 27012G18KT 9999 BKN090 BKN120 QNH2991INS BECMG 3004/3005 26009KT 9999 SCT080 BKN180 QNH3002INS BECMG 3014/3015 27015G25KT 9999 SCT080 QNH3007INS BECMG 3102/3103 28009KT 9999 SCT080 QNH3006INS TX18/2922Z TN07/3012Z